createdAt,value
2023-12-14T00:00:33.804Z,29.80
2023-12-14T00:03:02.050Z,29.67
2023-12-14T00:05:29.841Z,28.88
2023-12-14T00:07:57.653Z,29.17
2023-12-14T00:10:25.984Z,28.33
2023-12-14T00:12:56.438Z,28.10
2023-12-14T00:15:24.349Z,27.35
2023-12-14T00:17:52.453Z,28.00
2023-12-14T00:20:20.612Z,27.27
2023-12-14T00:22:48.498Z,28.08
2023-12-14T00:25:16.676Z,27.65
2023-12-14T00:27:44.562Z,28.63
2023-12-14T00:30:14.984Z,28.70
2023-12-14T00:32:42.809Z,28.02
2023-12-14T00:35:10.717Z,27.85
2023-12-14T00:37:38.961Z,27.70
2023-12-14T00:40:08.051Z,29.40
2023-12-14T00:42:36.116Z,28.48
2023-12-14T00:45:04.352Z,27.27
2023-12-14T00:47:33.521Z,28.30
2023-12-14T00:50:01.456Z,26.98
2023-12-14T00:52:29.609Z,28.73
2023-12-14T00:54:57.472Z,27.75
2023-12-14T00:57:25.371Z,27.25
2023-12-14T00:59:53.598Z,27.13
2023-12-14T01:02:21.485Z,27.50
2023-12-14T01:04:50.713Z,26.88
2023-12-14T01:07:18.794Z,27.70
2023-12-14T01:09:46.626Z,29.15
2023-12-14T01:12:14.417Z,27.75
2023-12-14T01:14:42.425Z,27.85
2023-12-14T01:17:10.412Z,27.40
2023-12-14T01:19:41.971Z,28.85
2023-12-14T01:22:11.427Z,28.60
2023-12-14T01:24:39.239Z,27.80
2023-12-14T01:27:07.176Z,27.50
2023-12-14T01:29:35.363Z,27.23
2023-12-14T01:32:03.204Z,27.42
2023-12-14T01:34:31.143Z,27.60
2023-12-14T01:36:59.402Z,29.00
2023-12-14T01:39:28.564Z,28.48
2023-12-14T01:41:56.389Z,29.65
2023-12-14T01:44:24.500Z,30.52
2023-12-14T01:46:52.432Z,30.10
2023-12-14T01:49:20.281Z,31.42
2023-12-14T01:51:48.304Z,31.50
2023-12-14T01:54:16.096Z,31.55
2023-12-14T01:56:45.405Z,29.85
2023-12-14T01:59:13.303Z,31.30
2023-12-14T02:01:44.399Z,29.00
2023-12-14T02:04:13.334Z,27.17
2023-12-14T02:06:41.483Z,26.77
2023-12-14T02:09:09.350Z,25.00
2023-12-14T02:11:37.495Z,25.95
2023-12-14T02:14:08.002Z,26.30
2023-12-14T02:16:35.885Z,25.33
2023-12-14T02:19:03.771Z,25.08
2023-12-14T02:21:31.876Z,25.90
2023-12-14T02:24:01.088Z,23.02
2023-12-14T02:26:28.923Z,21.50
2023-12-14T02:28:57.056Z,22.00
2023-12-14T02:31:25.349Z,22.67
2023-12-14T02:33:53.290Z,22.90
2023-12-14T02:36:21.336Z,24.13
2023-12-14T02:38:49.349Z,25.92
2023-12-14T02:41:18.767Z,24.92
2023-12-14T02:43:46.830Z,25.38
2023-12-14T02:46:16.576Z,24.85
2023-12-14T02:48:44.836Z,25.42
2023-12-14T02:51:15.967Z,25.40
2023-12-14T02:53:44.651Z,27.58
2023-12-14T02:56:13.256Z,26.85
2023-12-14T02:58:42.777Z,26.47
2023-12-14T03:01:10.672Z,26.45
2023-12-14T03:03:41.045Z,26.17
2023-12-14T03:06:09.540Z,26.92
2023-12-14T03:08:37.436Z,28.38
2023-12-14T03:11:05.645Z,25.92
2023-12-14T03:13:33.810Z,26.33
2023-12-14T03:16:03.215Z,25.35
2023-12-14T03:18:31.077Z,27.27
2023-12-14T03:20:59.134Z,25.08
2023-12-14T03:23:26.920Z,26.13
2023-12-14T03:25:54.797Z,25.25
2023-12-14T03:28:22.654Z,24.73
2023-12-14T03:30:50.528Z,25.40
2023-12-14T03:33:19.750Z,24.38
2023-12-14T03:35:48.002Z,28.50
2023-12-14T03:38:16.160Z,28.60
2023-12-14T03:40:44.117Z,29.13
2023-12-14T03:43:12.686Z,29.30
2023-12-14T03:45:40.667Z,27.80
2023-12-14T03:48:08.545Z,28.27
2023-12-14T03:50:38.371Z,30.42
2023-12-14T03:53:06.259Z,31.27
2023-12-14T03:55:34.492Z,31.20
2023-12-14T03:58:02.703Z,31.40
2023-12-14T04:00:30.605Z,29.70
2023-12-14T04:02:58.521Z,31.95
2023-12-14T04:05:26.747Z,31.52
2023-12-14T04:07:56.015Z,32.38
2023-12-14T04:10:23.829Z,31.98
2023-12-14T04:12:51.884Z,30.35
2023-12-14T04:15:19.862Z,32.60
2023-12-14T04:17:47.815Z,34.35
2023-12-14T04:20:17.285Z,31.88
2023-12-14T04:22:45.819Z,27.98
2023-12-14T04:25:15.334Z,27.70
2023-12-14T04:27:43.443Z,28.27
2023-12-14T04:30:12.933Z,24.70
2023-12-14T04:32:41.087Z,24.80
2023-12-14T04:35:10.373Z,23.85
2023-12-14T04:37:38.381Z,24.77
2023-12-14T04:40:07.468Z,24.77
2023-12-14T04:42:37.324Z,25.02
2023-12-14T04:45:06.378Z,25.85
2023-12-14T04:47:34.568Z,24.23
2023-12-14T04:50:02.578Z,24.92
2023-12-14T04:52:30.545Z,23.95
2023-12-14T04:54:58.727Z,22.15
2023-12-14T04:57:26.522Z,21.55
2023-12-14T04:59:55.715Z,22.40
2023-12-14T05:02:23.846Z,22.40
2023-12-14T05:04:51.718Z,21.85
2023-12-14T05:07:20.142Z,23.50
2023-12-14T05:09:48.270Z,22.40
2023-12-14T05:12:16.073Z,22.85
2023-12-14T05:14:43.878Z,22.17
2023-12-14T05:17:13.440Z,21.58
2023-12-14T05:22:09.159Z,20.88
2023-12-14T05:24:37.258Z,21.75
2023-12-14T05:27:05.493Z,20.63
2023-12-14T05:29:34.551Z,21.65
2023-12-14T05:32:02.719Z,21.13
2023-12-14T05:34:32.143Z,21.27
2023-12-14T05:37:00.017Z,22.77
2023-12-14T05:39:28.036Z,24.25
2023-12-14T05:41:55.804Z,23.10
2023-12-14T05:44:23.801Z,22.90
2023-12-14T05:46:52.918Z,23.40
2023-12-14T05:49:21.014Z,21.67
2023-12-14T05:51:50.603Z,20.92
2023-12-14T05:54:18.947Z,21.48
2023-12-14T05:56:46.740Z,20.42
2023-12-14T05:59:14.581Z,18.50
2023-12-14T06:01:44.907Z,18.90
2023-12-14T06:04:12.811Z,19.77
2023-12-14T06:06:41.088Z,18.67
2023-12-14T06:09:10.764Z,18.45
2023-12-14T06:14:06.588Z,18.85
2023-12-14T06:16:34.941Z,19.48
2023-12-14T06:19:02.924Z,19.60
2023-12-14T06:21:30.885Z,18.70
2023-12-14T06:24:00.807Z,18.20
2023-12-14T06:26:30.032Z,18.50
2023-12-14T06:28:57.834Z,18.98
2023-12-14T06:31:26.191Z,17.90
2023-12-14T06:33:55.038Z,18.98
2023-12-14T06:36:28.476Z,18.45
2023-12-14T06:38:56.323Z,18.80
2023-12-14T06:41:25.039Z,18.77
2023-12-14T06:43:55.263Z,17.50
2023-12-14T06:46:23.734Z,17.88
2023-12-14T06:48:52.043Z,18.10
2023-12-14T06:51:20.551Z,17.15
2023-12-14T06:53:49.507Z,18.80
2023-12-14T06:56:17.575Z,17.42
2023-12-14T06:58:47.531Z,17.77
2023-12-14T07:01:17.751Z,18.27
2023-12-14T07:03:46.563Z,19.25
2023-12-14T07:06:16.367Z,19.80
2023-12-14T07:08:45.443Z,18.42
2023-12-14T07:11:14.224Z,17.70
2023-12-14T07:13:42.948Z,15.47
2023-12-14T07:16:12.835Z,17.17
2023-12-14T07:18:44.409Z,15.40
2023-12-14T07:21:12.543Z,15.35
2023-12-14T07:23:40.672Z,16.23
2023-12-14T07:26:09.105Z,17.95
2023-12-14T07:28:37.133Z,16.40
2023-12-14T07:31:05.568Z,17.02
2023-12-14T07:33:33.864Z,18.27
2023-12-14T07:36:03.189Z,16.17
2023-12-14T07:38:30.949Z,16.05
2023-12-14T07:40:58.226Z,16.17
2023-12-14T07:43:26.450Z,16.73
2023-12-14T07:45:54.202Z,15.75
2023-12-14T07:48:22.593Z,15.00
2023-12-14T07:50:50.406Z,16.38
2023-12-14T07:53:19.610Z,17.55
2023-12-14T07:55:48.100Z,15.77
2023-12-14T07:58:15.979Z,16.52
2023-12-14T08:00:43.880Z,15.48
2023-12-14T08:03:12.217Z,16.65
2023-12-14T08:05:40.359Z,15.38
2023-12-14T08:08:08.458Z,15.98
2023-12-14T08:10:38.435Z,15.30
2023-12-14T08:13:06.299Z,16.02
2023-12-14T08:15:34.130Z,15.35
2023-12-14T08:18:02.614Z,15.60
2023-12-14T08:20:30.536Z,14.57
2023-12-14T08:22:58.386Z,14.63
2023-12-14T08:25:27.236Z,14.45
2023-12-14T08:27:56.426Z,14.20
2023-12-14T08:30:25.101Z,14.00
2023-12-14T08:32:53.517Z,14.60
2023-12-14T08:35:21.625Z,13.30
2023-12-14T08:37:49.849Z,12.77
2023-12-14T08:40:18.174Z,12.27
2023-12-14T08:42:46.020Z,11.57
2023-12-14T08:45:15.531Z,12.25
2023-12-14T08:47:44.746Z,11.05
2023-12-14T08:50:13.640Z,11.57
2023-12-14T08:52:41.562Z,10.73
2023-12-14T08:55:10.917Z,11.55
2023-12-14T08:57:38.745Z,10.30
2023-12-14T09:00:08.370Z,10.68
2023-12-14T09:05:07.824Z,10.20
2023-12-14T09:07:35.716Z,9.88
2023-12-14T09:10:04.151Z,8.93
2023-12-14T09:12:32.865Z,8.85
2023-12-14T09:15:01.149Z,7.82
2023-12-14T09:17:37.282Z,8.02
2023-12-14T09:20:09.113Z,8.93
2023-12-14T09:22:37.571Z,7.70
2023-12-14T09:25:06.149Z,7.45
2023-12-14T09:27:34.431Z,7.80
2023-12-14T09:30:02.912Z,7.32
2023-12-14T09:32:31.208Z,8.10
2023-12-14T09:34:59.191Z,7.22
2023-12-14T09:37:29.042Z,7.47
2023-12-14T09:39:56.984Z,7.60
2023-12-14T09:42:25.005Z,7.57
2023-12-14T09:44:55.235Z,8.30
2023-12-14T09:47:23.109Z,7.60
2023-12-14T09:49:53.921Z,8.48
2023-12-14T09:52:22.388Z,7.90
2023-12-14T09:54:53.732Z,7.75
2023-12-14T09:57:24.424Z,8.48
2023-12-14T09:59:56.256Z,7.97
2023-12-14T10:02:28.436Z,8.25
2023-12-14T10:04:56.646Z,7.13
2023-12-14T10:07:25.054Z,7.25
2023-12-14T10:09:55.141Z,7.22
2023-12-14T10:12:24.327Z,7.80
2023-12-14T10:15:03.155Z,7.93
2023-12-14T10:17:33.945Z,7.47
2023-12-14T10:20:06.944Z,7.25
2023-12-14T10:22:34.774Z,7.13
2023-12-14T10:25:04.604Z,7.13
2023-12-14T10:27:34.585Z,9.25
2023-12-14T10:30:07.427Z,6.93
2023-12-14T10:32:36.658Z,7.15
2023-12-14T10:35:05.031Z,7.03
2023-12-14T10:37:35.301Z,7.10
2023-12-14T10:40:06.947Z,7.75
2023-12-14T10:42:38.084Z,17.77
2023-12-14T10:45:17.144Z,19.50
2023-12-14T10:47:49.185Z,18.33
2023-12-14T10:50:18.663Z,10.40
2023-12-14T10:52:47.129Z,10.65
2023-12-14T10:55:24.004Z,13.13
2023-12-14T10:57:53.991Z,8.88
2023-12-14T11:00:22.046Z,6.78
2023-12-14T11:02:50.975Z,6.40
2023-12-14T11:05:24.129Z,6.13
2023-12-14T11:07:56.229Z,8.05
2023-12-14T11:10:29.161Z,6.60
2023-12-14T11:12:59.218Z,7.68
2023-12-14T11:15:28.511Z,5.35
2023-12-14T11:18:30.014Z,4.78
2023-12-14T11:21:00.088Z,5.05
2023-12-14T11:23:40.549Z,16.40
2023-12-14T11:26:12.265Z,10.40
2023-12-14T11:28:43.944Z,9.55
2023-12-14T11:31:13.500Z,8.68
2023-12-14T11:33:44.190Z,7.85
2023-12-14T11:36:17.320Z,5.70
2023-12-14T11:38:45.926Z,10.85
2023-12-14T11:41:15.524Z,13.55
2023-12-14T11:46:12.355Z,14.50
2023-12-14T11:48:40.509Z,16.13
2023-12-14T11:51:09.113Z,7.68
2023-12-14T11:53:39.777Z,14.52
2023-12-14T11:56:09.354Z,10.18
2023-12-14T11:58:38.619Z,13.75
2023-12-14T12:01:14.930Z,13.90
2023-12-14T12:03:43.065Z,13.20
2023-12-14T12:06:11.029Z,11.82
2023-12-14T12:08:44.871Z,16.02
2023-12-14T12:11:12.811Z,17.10
2023-12-14T12:13:41.983Z,16.90
2023-12-14T12:16:10.237Z,13.18
2023-12-14T12:18:40.847Z,16.92
2023-12-14T12:21:10.646Z,26.85
2023-12-14T12:23:38.437Z,19.55
2023-12-14T12:26:06.467Z,16.15
2023-12-14T12:28:34.840Z,21.55
2023-12-14T12:31:05.475Z,14.38
2023-12-14T12:33:39.160Z,16.58
2023-12-14T12:36:08.729Z,12.82
2023-12-14T12:38:42.039Z,13.18
2023-12-14T12:41:10.080Z,17.23
2023-12-14T12:43:38.273Z,18.60
2023-12-14T12:46:08.709Z,16.27
2023-12-14T12:48:36.865Z,20.90
2023-12-14T12:51:05.318Z,54.70
2023-12-14T12:53:34.934Z,31.20
2023-12-14T12:58:31.368Z,13.40
2023-12-14T13:00:59.937Z,13.38
2023-12-14T13:03:29.246Z,16.25
2023-12-14T13:05:57.434Z,16.65
2023-12-14T13:08:25.452Z,26.25
2023-12-14T13:10:55.845Z,16.60
2023-12-14T13:13:24.236Z,23.45
2023-12-14T13:15:52.658Z,17.70
2023-12-14T13:18:20.732Z,28.13
2023-12-14T13:20:50.178Z,23.65
2023-12-14T13:23:18.760Z,14.80
2023-12-14T13:25:47.027Z,15.27
2023-12-14T13:28:17.662Z,63.15
2023-12-14T13:30:46.806Z,35.47
2023-12-14T13:33:15.418Z,36.13
2023-12-14T13:35:44.080Z,34.53
2023-12-14T13:38:14.104Z,24.77
2023-12-14T13:40:42.147Z,28.95
2023-12-14T13:43:11.867Z,21.58
2023-12-14T13:45:42.726Z,22.13
2023-12-14T13:48:10.922Z,11.40
2023-12-14T13:50:38.934Z,12.98
2023-12-14T13:53:07.224Z,17.50
2023-12-14T13:55:36.545Z,13.95
2023-12-14T13:58:04.420Z,57.53
2023-12-14T14:00:34.124Z,24.85
2023-12-14T14:05:29.727Z,13.65
2023-12-14T14:07:58.025Z,19.88
2023-12-14T14:10:26.157Z,12.38
2023-12-14T14:12:55.370Z,15.02
2023-12-14T14:15:23.290Z,13.40
2023-12-14T14:17:53.576Z,19.55
2023-12-14T14:20:21.861Z,14.90
2023-12-14T14:22:49.959Z,12.13
2023-12-14T14:25:17.905Z,15.85
2023-12-14T14:27:47.908Z,15.07
2023-12-14T14:30:18.367Z,9.43
2023-12-14T14:32:46.516Z,9.02
2023-12-14T14:35:15.139Z,10.27
2023-12-14T14:37:46.934Z,17.53
2023-12-14T14:40:15.558Z,13.02
2023-12-14T14:42:43.882Z,14.40
2023-12-14T14:45:12.509Z,14.23
2023-12-14T14:47:42.218Z,8.90
2023-12-14T14:50:10.994Z,13.20
2023-12-14T14:52:39.281Z,9.07
2023-12-14T14:55:07.770Z,8.38
2023-12-14T14:57:35.921Z,10.18
2023-12-14T15:00:04.633Z,9.18
2023-12-14T15:02:32.558Z,8.93
2023-12-14T15:05:01.978Z,8.88
2023-12-14T15:07:31.656Z,8.38
2023-12-14T15:12:28.729Z,8.60
2023-12-14T15:14:57.486Z,8.00
2023-12-14T15:17:25.669Z,26.80
2023-12-14T15:19:53.697Z,14.57
2023-12-14T15:22:22.961Z,11.30
2023-12-14T15:24:50.768Z,11.13
2023-12-14T15:27:18.572Z,8.07
2023-12-14T15:29:47.511Z,7.30
2023-12-14T15:32:16.010Z,14.38
2023-12-14T15:34:44.139Z,10.95
2023-12-14T15:37:12.201Z,11.27
2023-12-14T15:39:41.531Z,16.23
2023-12-14T15:42:09.345Z,7.10
2023-12-14T15:44:37.206Z,9.73
2023-12-14T15:47:05.338Z,9.25
2023-12-14T15:49:33.189Z,13.45
2023-12-14T15:52:01.107Z,8.75
2023-12-14T15:54:28.926Z,10.60
2023-12-14T15:56:59.641Z,6.75
2023-12-14T15:59:28.583Z,6.60
2023-12-14T16:01:56.754Z,7.07
2023-12-14T16:04:24.617Z,5.05
2023-12-14T16:06:52.774Z,5.25
2023-12-14T16:09:20.648Z,6.72
2023-12-14T16:11:48.508Z,3.97
2023-12-14T16:14:18.653Z,3.28
2023-12-14T16:16:46.528Z,4.20
2023-12-14T16:19:14.429Z,9.30
2023-12-14T16:21:42.448Z,3.70
2023-12-14T16:24:10.261Z,3.50
2023-12-14T16:26:40.566Z,5.00
2023-12-14T16:29:08.822Z,4.15
2023-12-14T16:31:43.565Z,4.50
2023-12-14T16:34:11.679Z,4.00
2023-12-14T16:36:39.644Z,5.28
2023-12-14T16:39:10.752Z,5.85
2023-12-14T16:41:38.718Z,5.40
2023-12-14T16:44:06.877Z,6.28
2023-12-14T16:46:34.889Z,6.13
2023-12-14T16:49:04.611Z,5.13
2023-12-14T16:51:32.908Z,5.55
2023-12-14T16:54:03.405Z,5.35
2023-12-14T16:56:34.354Z,4.80
2023-12-14T17:01:30.188Z,4.75
2023-12-14T17:03:58.417Z,4.60
2023-12-14T17:06:27.636Z,4.18
2023-12-14T17:08:56.644Z,4.13
2023-12-14T17:11:25.028Z,4.53
2023-12-14T17:13:53.242Z,5.00
2023-12-14T17:16:23.500Z,4.30
2023-12-14T17:18:51.421Z,4.00
2023-12-14T17:21:20.334Z,4.55
2023-12-14T17:23:49.976Z,4.38
2023-12-14T17:28:47.241Z,4.25
2023-12-14T17:31:16.731Z,3.38
2023-12-14T17:33:45.360Z,4.28
2023-12-14T17:36:13.445Z,3.58
2023-12-14T17:38:41.637Z,4.47
2023-12-14T17:41:13.552Z,4.10
2023-12-14T17:43:41.801Z,4.40
2023-12-14T17:46:10.056Z,4.32
2023-12-14T17:48:38.268Z,4.80
2023-12-14T17:51:06.820Z,4.35
2023-12-14T17:53:35.222Z,5.18
2023-12-14T17:56:03.704Z,6.07
2023-12-14T17:58:32.996Z,5.60
2023-12-14T18:01:05.599Z,5.45
2023-12-14T18:03:34.697Z,5.60
2023-12-14T18:06:04.164Z,5.32
2023-12-14T18:08:32.221Z,4.93
2023-12-14T18:11:00.197Z,6.15
2023-12-14T18:13:28.298Z,13.55
2023-12-14T18:15:57.915Z,11.10
2023-12-14T18:20:54.969Z,7.43
2023-12-14T18:23:22.923Z,7.22
2023-12-14T18:25:50.851Z,7.53
2023-12-14T18:28:19.720Z,6.00
2023-12-14T18:30:47.918Z,6.53
2023-12-14T18:33:18.131Z,9.40
2023-12-14T18:35:46.056Z,9.50
2023-12-14T18:38:13.877Z,7.45
2023-12-14T18:40:41.721Z,6.55
2023-12-14T18:43:10.478Z,7.40
2023-12-14T18:45:40.045Z,7.03
2023-12-14T18:48:08.248Z,7.13
2023-12-14T18:50:38.244Z,7.88
2023-12-14T18:53:09.980Z,10.98
2023-12-14T18:55:38.277Z,7.93
2023-12-14T18:58:06.984Z,8.63
2023-12-14T19:00:34.842Z,7.57
2023-12-14T19:03:06.041Z,6.60
2023-12-14T19:05:36.773Z,8.82
2023-12-14T19:08:06.358Z,7.45
2023-12-14T19:10:35.339Z,7.85
2023-12-14T19:13:04.068Z,6.25
2023-12-14T19:15:32.795Z,6.20
2023-12-14T19:18:00.899Z,6.20
2023-12-14T19:20:28.969Z,6.55
2023-12-14T19:22:56.993Z,6.05
2023-12-14T19:25:26.198Z,5.55
2023-12-14T19:27:54.172Z,6.00
2023-12-14T19:30:22.840Z,5.68
2023-12-14T19:32:53.208Z,6.53
2023-12-14T19:35:21.343Z,6.55
2023-12-14T19:37:50.109Z,6.72
2023-12-14T19:40:19.053Z,6.60
2023-12-14T19:42:48.410Z,7.50
2023-12-14T19:45:16.306Z,6.28
2023-12-14T19:47:44.300Z,6.07
2023-12-14T19:50:12.911Z,6.68
2023-12-14T19:52:41.762Z,6.07
2023-12-14T19:55:12.667Z,5.47
2023-12-14T19:57:40.660Z,6.20
2023-12-14T20:00:12.239Z,5.95
2023-12-14T20:02:40.470Z,6.38
2023-12-14T20:05:09.279Z,6.47
2023-12-14T20:07:37.425Z,7.05
2023-12-14T20:10:06.328Z,6.28
2023-12-14T20:12:34.163Z,7.00
2023-12-14T20:15:02.033Z,6.20
2023-12-14T20:17:31.708Z,6.70
2023-12-14T20:22:27.806Z,6.28
2023-12-14T20:24:55.650Z,6.55
2023-12-14T20:27:23.484Z,6.78
2023-12-14T20:29:51.303Z,6.57
2023-12-14T20:32:19.363Z,6.07
2023-12-14T20:34:48.646Z,5.95
2023-12-14T20:37:16.457Z,6.35
2023-12-14T20:39:44.329Z,6.78
2023-12-14T20:42:12.132Z,6.35
2023-12-14T20:44:39.960Z,8.55
2023-12-14T20:47:08.066Z,8.52
2023-12-14T20:49:35.912Z,6.80
2023-12-14T20:52:05.540Z,6.82
2023-12-14T20:57:01.048Z,6.60
2023-12-14T20:59:28.934Z,6.07
2023-12-14T21:01:58.108Z,6.47
2023-12-14T21:04:26.131Z,6.72
2023-12-14T21:06:54.203Z,7.40
2023-12-14T21:09:23.596Z,6.53
2023-12-14T21:11:51.503Z,7.88
2023-12-14T21:14:19.373Z,8.23
2023-12-14T21:16:51.893Z,9.70
2023-12-14T21:19:20.245Z,7.70
2023-12-14T21:21:48.880Z,6.55
2023-12-14T21:24:18.730Z,7.90
2023-12-14T21:27:08.889Z,7.35
2023-12-14T21:29:37.101Z,7.00
2023-12-14T21:32:05.528Z,7.07
2023-12-14T21:34:33.683Z,6.95
2023-12-14T21:37:01.560Z,6.03
2023-12-14T21:39:29.452Z,6.10
2023-12-14T21:41:58.679Z,6.18
2023-12-14T21:44:26.701Z,6.25
2023-12-14T21:46:54.772Z,6.20
2023-12-14T21:49:23.168Z,6.35
2023-12-14T21:51:51.090Z,6.70
2023-12-14T21:54:18.978Z,6.47
2023-12-14T21:56:47.037Z,6.68
2023-12-14T21:59:16.520Z,7.82
2023-12-14T22:01:44.450Z,7.55
2023-12-14T22:04:12.301Z,7.07
2023-12-14T22:06:40.183Z,6.93
2023-12-14T22:09:08.185Z,7.15
2023-12-14T22:11:35.983Z,8.32
2023-12-14T22:14:04.335Z,7.63
2023-12-14T22:16:34.405Z,7.68
2023-12-14T22:19:02.503Z,7.00
2023-12-14T22:21:30.663Z,7.78
2023-12-14T22:23:58.525Z,7.03
2023-12-14T22:26:26.423Z,7.57
2023-12-14T22:28:54.389Z,7.70
2023-12-14T22:31:22.288Z,8.18
2023-12-14T22:33:51.629Z,7.90
2023-12-14T22:36:19.950Z,8.02
2023-12-14T22:38:47.776Z,8.18
2023-12-14T22:41:16.542Z,8.98
2023-12-14T22:43:44.910Z,8.77
2023-12-14T22:46:12.810Z,8.07
2023-12-14T22:48:40.773Z,8.27
2023-12-14T22:51:17.232Z,8.52
2023-12-14T22:53:45.393Z,8.50
2023-12-14T22:56:13.384Z,8.27
2023-12-14T22:58:41.249Z,8.48
2023-12-14T23:01:09.086Z,8.27
2023-12-14T23:03:37.006Z,8.15
2023-12-14T23:06:05.292Z,8.38
2023-12-14T23:08:34.516Z,8.93
2023-12-14T23:11:02.486Z,8.68
2023-12-14T23:13:30.340Z,8.75
2023-12-14T23:15:58.154Z,8.30
2023-12-14T23:18:26.037Z,8.50
2023-12-14T23:20:53.917Z,9.18
2023-12-14T23:23:21.741Z,8.52
2023-12-14T23:25:50.960Z,8.50
2023-12-14T23:28:23.010Z,9.48
2023-12-14T23:30:51.017Z,9.43
2023-12-14T23:33:19.091Z,8.55
2023-12-14T23:35:50.777Z,9.18
2023-12-14T23:38:19.205Z,9.48
2023-12-14T23:40:47.584Z,9.68
2023-12-14T23:43:16.829Z,9.68
2023-12-14T23:45:45.805Z,9.25
2023-12-14T23:48:13.878Z,9.10
2023-12-14T23:50:41.716Z,9.68
2023-12-14T23:53:09.844Z,8.90
2023-12-14T23:55:37.977Z,9.80
2023-12-14T23:58:05.786Z,10.10
